Lamar — WDE7053 — position and weather

sailwx.info

Track history (hours):
 
Tides and Currents Weather Stations Pressure Air Temp Water Temp Dewpoint Dewpoint Depression Visibility Wind Speed Wind Dir Waves Ship Positions

Lamar

Owner: G & H Towing Company, Galveston, TX. More information available from US FCC via Universal Licensing System and Coast Guard Vessel Documentation Center.

Last reported at 2017-Sep-24 13:59 UTC. Time now 2017-Sep-24 14:21 UTC.
Position N 29°42' W 095°01'.

Length 30 m; draft 6.5 m.

Type: Tug. MMSI: 367388340.

Date/timePositionNaut miles runAvg speedWind from/ knotsBaromVisibWave heightAir tempDewpointWater temp
2017-Sep-24 13:59N 29°42' W 095°01'0 0.0
2017-Sep-24 13:26N 29°42' W 095°01'0 0.0
2017-Sep-24 12:56N 29°42' W 095°01'0 0.0
2017-Sep-24 12:29N 29°42' W 095°01'0 0.0
2017-Sep-24 11:59N 29°42' W 095°01'0 0.0
2017-Sep-24 10:50N 29°42' W 095°01'0 0.0
2017-Sep-24 10:29N 29°42' W 095°01'0 0.0
2017-Sep-24 09:56N 29°42' W 095°01'0 0.0
2017-Sep-24 09:20N 29°42' W 095°01'0 0.0
2017-Sep-24 07:22N 29°42' W 095°01'2 5.1
2017-Sep-24 06:57N 29°44' W 095°03'4 5.9
2017-Sep-24 06:21N 29°44' W 095°07'0 0.2
2017-Sep-24 06:00N 29°44' W 095°07'0 0.0
2017-Sep-24 05:21N 29°44' W 095°07'2 6.7
2017-Sep-24 04:59N 29°45' W 095°04'3 5.5
2017-Sep-24 04:25N 29°44' W 095°01'0 0.0
2017-Sep-24 04:00N 29°44' W 095°01'0 0.0
2017-Sep-24 03:30N 29°44' W 095°01'1 2.4
2017-Sep-24 03:00N 29°42' W 095°01'0 0.4
2017-Sep-24 02:29N 29°42' W 095°01'0 0.0
2017-Sep-24 02:00N 29°42' W 095°01'0 0.6
2017-Sep-24 01:30N 29°42' W 095°01'1 1.1
2017-Sep-24 00:23N 29°44' W 095°01'1 3.1
2017-Sep-24 00:00N 29°43' W 095°01'2 4.5
2017-Sep-23 23:29N 29°41' W 094°59'0 0.4
2017-Sep-23 22:37N 29°41' W 094°60'0 0.0
2017-Sep-23 22:07N 29°41' W 094°60'0 0.0
2017-Sep-23 21:55N 29°41' W 094°60'0 0.0
2017-Sep-23 21:28N 29°41' W 094°60'0 0.0
2017-Sep-23 20:46N 29°41' W 094°60'0 0.0
2017-Sep-23 20:22N 29°41' W 094°60'2 5.2
2017-Sep-23 20:00N 29°42' W 095°01'2 0.0
2017-Sep-22 01:39N 29°41' W 094°60'0 0.0
2017-Sep-22 01:27N 29°41' W 094°60'0 0.0
2017-Sep-22 01:00N 29°41' W 094°60'4 8.1
2017-Sep-22 00:30N 29°37' W 094°57'5 9.8
2017-Sep-22 00:00N 29°33' W 094°55'0 0.1
2017-Sep-21 17:02N 29°33' W 094°54'1 6.2
2017-Sep-21 16:55N 29°33' W 094°55'1 3.6
2017-Sep-21 16:30N 29°35' W 094°56'1 1.0
2017-Sep-21 15:59N 29°35' W 094°56'612.7
2017-Sep-21 15:30N 29°41' W 094°59'0 0.4
2017-Sep-21 14:16N 29°41' W 094°59'1 2.2
2017-Sep-21 14:00N 29°41' W 094°60'0 0.1
2017-Sep-21 13:30N 29°41' W 094°60'4 8.5
2017-Sep-21 13:00N 29°37' W 094°57'2 4.0
2017-Sep-21 12:30N 29°37' W 094°60'1 1.4
2017-Sep-21 12:00N 29°37' W 095°01'0 0.1
2017-Sep-21 11:30N 29°37' W 095°01'0 0.0
2017-Sep-21 11:00N 29°37' W 095°01'0 0.6
2017-Sep-21 10:30N 29°37' W 095°00'1 1.5
2017-Sep-21 10:00N 29°37' W 095°01'1 2.7
2017-Sep-21 09:31N 29°37' W 094°60'1 2.8
2017-Sep-21 09:00N 29°37' W 095°01'0 0.0
2017-Sep-21 08:30N 29°37' W 095°01'0 0.1
2017-Sep-21 08:00N 29°37' W 095°01'1 1.6
2017-Sep-21 07:30N 29°37' W 095°00'0 0.0
2017-Sep-21 07:00N 29°37' W 095°00'0 0.0
2017-Sep-21 06:30N 29°37' W 095°00'0 0.0
2017-Sep-21 06:00N 29°37' W 095°00'0 0.0
2017-Sep-21 05:30N 29°37' W 095°00'0 0.0
2017-Sep-21 05:00N 29°37' W 095°00'0 0.0
2017-Sep-21 04:30N 29°37' W 095°00'1 2.0
2017-Sep-21 04:00N 29°37' W 095°01'1 2.9
2017-Sep-21 03:30N 29°37' W 094°60'2 3.9
2017-Sep-21 03:00N 29°37' W 094°58'4 2.6
2017-Sep-21 01:21N 29°41' W 094°59'1 1.8
2017-Sep-21 01:01N 29°41' W 094°60'0 0.1
2017-Sep-21 00:30N 29°41' W 094°60'3 5.3
2017-Sep-21 00:00N 29°43' W 095°01'6 5.9
2017-Sep-20 23:04N 29°44' W 095°08'0 0.1
2017-Sep-20 22:46N 29°44' W 095°08'0 0.1
2017-Sep-20 22:30N 29°44' W 095°08'1 2.5
2017-Sep-20 21:57N 29°45' W 095°06'2 4.1
2017-Sep-20 21:27N 29°45' W 095°04'3 5.9
2017-Sep-20 21:00N 29°44' W 095°01'3 5.6
2017-Sep-20 20:31N 29°42' W 094°59'1 0.2
2017-Sep-20 16:51N 29°41' W 094°59'0 0.2
2017-Sep-20 16:30N 29°41' W 094°59'1 1.9
2017-Sep-20 16:01N 29°42' W 094°60'1 2.4
2017-Sep-20 15:29N 29°42' W 095°01'0 0.0
2017-Sep-20 14:56N 29°42' W 095°01'0 0.0
2017-Sep-20 12:56N 29°42' W 095°01'0 0.0
2017-Sep-20 11:45N 29°42' W 095°01'2 7.1
2017-Sep-20 11:30N 29°42' W 094°59'0 0.6
2017-Sep-20 10:40N 29°41' W 094°59'0 1.4
2017-Sep-20 10:30N 29°41' W 094°59'1 0.9
2017-Sep-20 09:54N 29°41' W 094°60'0 0.0
2017-Sep-20 09:24N 29°41' W 094°60'0 0.0
2017-Sep-20 09:00N 29°41' W 094°60'0 0.0
2017-Sep-20 07:43N 29°41' W 094°60'1 3.6
2017-Sep-20 07:31N 29°41' W 094°59'1 1.3
2017-Sep-20 06:58N 29°41' W 094°59'0 0.1
2017-Sep-20 06:31N 29°41' W 094°59'0 0.0
2017-Sep-20 06:00N 29°41' W 094°59'3 5.1
2017-Sep-20 05:31N 29°43' W 095°01'2 3.8
2017-Sep-20 05:01N 29°44' W 095°03'0 0.0
2017-Sep-20 04:30N 29°44' W 095°03'0 0.3
2017-Sep-20 04:01N 29°44' W 095°03'2 3.4
2017-Sep-20 03:26N 29°43' W 095°01'0 0.8
2017-Sep-20 02:49N 29°42' W 095°01'0 0.0
2017-Sep-20 02:28N 29°42' W 095°01'0 0.0
2017-Sep-20 01:57N 29°42' W 095°01'3 1.6
2017-Sep-20 00:21N 29°44' W 095°03'2 6.1
2017-Sep-20 00:00N 29°43' W 095°01'2 4.3
2017-Sep-19 23:30N 29°41' W 094°60'0 0.0
2017-Sep-19 23:00N 29°41' W 094°60'1 1.1
2017-Sep-19 22:30N 29°41' W 094°59'3 6.3
2017-Sep-19 22:00N 29°38' W 094°58'2 4.9
2017-Sep-19 21:30N 29°37' W 095°00'0 0.0
2017-Sep-19 21:00N 29°37' W 095°00'0 0.0
2017-Sep-19 20:30N 29°37' W 095°00'0 0.0
2017-Sep-19 19:57N 29°37' W 095°00'0 0.0
2017-Sep-19 19:30N 29°37' W 095°00'0 0.0
2017-Sep-19 19:00N 29°37' W 095°00'0 0.0
2017-Sep-19 18:27N 29°37' W 095°00'0 0.0
2017-Sep-19 18:00N 29°37' W 095°00'0 0.0
2017-Sep-19 17:27N 29°37' W 095°00'0 0.0
2017-Sep-19 17:00N 29°37' W 095°00'0 0.0
2017-Sep-19 16:30N 29°37' W 095°00'0 0.0
2017-Sep-19 16:00N 29°37' W 095°00'0 0.0
2017-Sep-19 15:30N 29°37' W 095°00'0 0.0
2017-Sep-19 15:00N 29°37' W 095°00'0 0.0
2017-Sep-19 14:27N 29°37' W 095°00'0 0.0
2017-Sep-19 14:00N 29°37' W 095°00'0 0.0
2017-Sep-19 13:30N 29°37' W 095°00'0 0.0
2017-Sep-19 13:00N 29°37' W 095°00'0 0.0
2017-Sep-19 12:30N 29°37' W 095°00'0 0.0
2017-Sep-19 12:00N 29°37' W 095°00'0 0.0
2017-Sep-19 11:30N 29°37' W 095°00'0 0.0
2017-Sep-19 11:00N 29°37' W 095°00'0 0.0
2017-Sep-19 10:27N 29°37' W 095°00'0 0.0
2017-Sep-19 10:00N 29°37' W 095°00'0 0.0
2017-Sep-19 09:30N 29°37' W 095°00'0 0.0
2017-Sep-19 09:00N 29°37' W 095°00'0 0.0
2017-Sep-19 08:30N 29°37' W 095°00'0 0.0
2017-Sep-19 08:00N 29°37' W 095°00'0 0.0
2017-Sep-19 07:30N 29°37' W 095°00'0 0.0
2017-Sep-19 07:00N 29°37' W 095°00'0 0.0
2017-Sep-19 06:30N 29°37' W 095°00'0 0.0
2017-Sep-19 06:00N 29°37' W 095°00'1 2.3
2017-Sep-19 05:30N 29°37' W 095°01'0 0.0
2017-Sep-19 05:00N 29°37' W 095°01'1 2.5
2017-Sep-19 04:30N 29°37' W 094°60'0 0.3
2017-Sep-19 04:00N 29°37' W 095°00'0 0.0
2017-Sep-19 03:30N 29°37' W 095°00'0 0.0
2017-Sep-19 02:57N 29°37' W 095°00'1 2.6
2017-Sep-19 02:30N 29°37' W 095°01'0 0.0
2017-Sep-19 02:00N 29°37' W 095°01'0 0.4
2017-Sep-19 01:30N 29°37' W 095°02'1 1.7
2017-Sep-19 01:00N 29°37' W 095°01'1 0.8
2017-Sep-19 00:18N 29°37' W 095°00'0 0.0
2017-Sep-19 00:00N 29°37' W 095°00'2 4.4
2017-Sep-18 23:30N 29°38' W 094°58'5 9.2
2017-Sep-18 23:00N 29°42' W 094°60'4 3.2
2017-Sep-18 21:49N 29°44' W 095°03'1 3.2
2017-Sep-18 21:30N 29°44' W 095°02'1 2.8
2017-Sep-18 20:58N 29°43' W 095°01'3 7.3
2017-Sep-18 20:30N 29°40' W 094°59'4 6.6
2017-Sep-18 19:59N 29°37' W 094°60'1 2.9
2017-Sep-18 19:28N 29°37' W 095°02'0 0.8
2017-Sep-18 18:59N 29°37' W 095°01'0 0.0
2017-Sep-18 18:29N 29°37' W 095°01'0 0.0
2017-Sep-18 17:59N 29°37' W 095°01'0 0.0
2017-Sep-18 17:29N 29°37' W 095°01'1 1.7
2017-Sep-18 17:00N 29°37' W 095°00'0 0.0
2017-Sep-18 16:30N 29°37' W 095°00'0 0.0
2017-Sep-18 16:00N 29°37' W 095°00'0 0.7
2017-Sep-18 15:30N 29°37' W 095°01'0 0.9
2017-Sep-18 15:00N 29°37' W 095°01'1 2.5
2017-Sep-18 14:30N 29°37' W 094°60'0 0.3
2017-Sep-18 13:59N 29°37' W 094°60'1 1.1
2017-Sep-18 13:28N 29°37' W 095°00'0 0.0
2017-Sep-18 12:58N 29°37' W 095°00'0 0.0
2017-Sep-18 12:28N 29°37' W 095°00'0 0.2
2017-Sep-18 12:00N 29°37' W 095°00'0 0.8
2017-Sep-18 11:25N 29°37' W 095°01'0 0.7
2017-Sep-18 11:00N 29°37' W 095°01'2 4.4
2017-Sep-18 10:30N 29°37' W 094°59'3 6.3
2017-Sep-18 10:00N 29°35' W 094°56'4 8.4
2017-Sep-18 09:31N 29°37' W 095°00'1 2.4
2017-Sep-18 09:00N 29°37' W 095°02'0 0.0
2017-Sep-18 08:30N 29°37' W 095°02'0 0.0
2017-Sep-18 08:00N 29°37' W 095°02'0 0.0
2017-Sep-18 07:30N 29°37' W 095°02'0 0.0
2017-Sep-18 07:00N 29°37' W 095°02'0 0.0
2017-Sep-18 06:24N 29°37' W 095°02'0 0.0
2017-Sep-18 06:00N 29°37' W 095°02'0 0.0
2017-Sep-18 05:30N 29°37' W 095°02'0 0.0
2017-Sep-18 05:00N 29°37' W 095°02'0 0.0
2017-Sep-18 04:30N 29°37' W 095°02'0 0.0
2017-Sep-18 03:57N 29°37' W 095°02'0 0.0
2017-Sep-18 03:27N 29°37' W 095°02'0 0.0
2017-Sep-18 03:00N 29°37' W 095°02'0 0.0
2017-Sep-18 02:30N 29°37' W 095°02'0 0.0
2017-Sep-18 02:00N 29°37' W 095°02'0 0.0
2017-Sep-18 01:30N 29°37' W 095°02'0 0.0
2017-Sep-18 00:58N 29°37' W 095°02'0 0.0
2017-Sep-18 00:30N 29°37' W 095°02'0 0.0
2017-Sep-17 23:59N 29°37' W 095°02'0 0.0
2017-Sep-17 23:30N 29°37' W 095°02'1 2.6
2017-Sep-17 23:00N 29°37' W 095°00'1 2.1
2017-Sep-17 22:30N 29°37' W 095°01'2 3.0
2017-Sep-17 22:00N 29°37' W 094°60'0 0.1
2017-Sep-17 21:31N 29°37' W 094°59'3 6.7
2017-Sep-17 21:00N 29°40' W 094°59'3 6.4
2017-Sep-17 20:30N 29°42' W 095°01'0 0.0
2017-Sep-17 20:00N 29°42' W 095°01'0 0.0
2017-Sep-17 19:30N 29°42' W 095°01'0 0.0
2017-Sep-17 19:00N 29°42' W 095°01'0 0.0
2017-Sep-17 18:30N 29°42' W 095°01'0 0.0
2017-Sep-17 18:00N 29°42' W 095°01'2 4.3
2017-Sep-17 17:30N 29°41' W 094°59'4 7.9
2017-Sep-17 16:57N 29°37' W 094°59'3 5.7
2017-Sep-17 16:30N 29°37' W 095°01'0 0.4
2017-Sep-17 16:00N 29°37' W 095°01'1 2.1
2017-Sep-17 15:30N 29°37' W 095°00'2 4.4
2017-Sep-17 15:01N 29°37' W 094°58'5 9.4
2017-Sep-17 14:30N 29°41' W 094°59'2 3.3
2017-Sep-17 13:58N 29°42' W 095°01'0 0.0
2017-Sep-17 13:28N 29°42' W 095°01'0 0.0
2017-Sep-17 12:58N 29°42' W 095°01'0 0.0
2017-Sep-17 12:28N 29°42' W 095°01'0 0.0
2017-Sep-17 11:58N 29°42' W 095°01'0 0.0
2017-Sep-17 11:25N 29°42' W 095°01'0 0.0
2017-Sep-17 10:55N 29°42' W 095°01'0 0.0
2017-Sep-17 10:28N 29°42' W 095°01'0 0.0
2017-Sep-17 09:55N 29°42' W 095°01'0 0.0
2017-Sep-17 09:25N 29°42' W 095°01'0 0.0
2017-Sep-17 08:52N 29°42' W 095°01'0 0.0
2017-Sep-17 08:19N 29°42' W 095°01'0 0.0
2017-Sep-17 07:55N 29°42' W 095°01'0 0.0
2017-Sep-17 07:22N 29°42' W 095°01'0 0.0
2017-Sep-17 06:55N 29°42' W 095°01'0 0.0
2017-Sep-17 06:28N 29°42' W 095°01'0 0.0
2017-Sep-17 05:58N 29°42' W 095°01'0 0.0
2017-Sep-17 05:28N 29°42' W 095°01'0 0.0
2017-Sep-17 04:58N 29°42' W 095°01'0 0.0
2017-Sep-17 04:28N 29°42' W 095°01'0 0.0
2017-Sep-17 03:58N 29°42' W 095°01'0 0.0
2017-Sep-17 03:28N 29°42' W 095°01'0 0.0
2017-Sep-17 02:58N 29°42' W 095°01'0 0.0
2017-Sep-17 02:28N 29°42' W 095°01'0 0.0
2017-Sep-17 01:58N 29°42' W 095°01'0 0.0
2017-Sep-17 01:28N 29°42' W 095°01'0 0.0
2017-Sep-17 00:58N 29°42' W 095°01'0 0.0
2017-Sep-17 00:25N 29°42' W 095°01'0 0.0
2017-Sep-16 23:58N 29°42' W 095°01'0 1.0
2017-Sep-16 23:31N 29°43' W 095°01'2 0.9
2017-Sep-16 21:17N 29°44' W 095°03'2 4.6
2017-Sep-16 20:57N 29°44' W 095°01'2 3.5
2017-Sep-16 20:30N 29°42' W 095°01'2 2.0
2017-Sep-16 19:41N 29°41' W 094°59'0 1.2
2017-Sep-16 19:28N 29°41' W 094°60'0 0.0
2017-Sep-16 19:00N 29°41' W 094°60'3 4.8
2017-Sep-16 18:29N 29°43' W 095°01'3 5.5
2017-Sep-16 17:59N 29°45' W 095°04'2 1.2
2017-Sep-16 16:16N 29°45' W 095°06'1 0.4
2017-Sep-16 14:53N 29°44' W 095°07'0 0.7
2017-Sep-16 14:30N 29°45' W 095°06'2 3.9
2017-Sep-16 14:00N 29°46' W 095°04'4 7.6
2017-Sep-16 13:30N 29°43' W 095°01'1 1.3
2017-Sep-16 12:57N 29°42' W 095°01'0 0.0
2017-Sep-16 12:30N 29°42' W 095°01'0 0.0
2017-Sep-16 12:00N 29°42' W 095°01'1 1.3
2017-Sep-16 11:30N 29°42' W 095°00'5 9.6
2017-Sep-16 11:00N 29°38' W 094°58'3 5.0
2017-Sep-16 10:30N 29°37' W 095°00'0 0.0
2017-Sep-16 09:47N 29°37' W 095°00'0 0.8
2017-Sep-16 09:30N 29°37' W 095°01'0 0.2
2017-Sep-16 09:00N 29°37' W 095°01'0 0.1
2017-Sep-16 08:30N 29°37' W 095°01'3 6.6
2017-Sep-16 08:00N 29°36' W 094°57'1 2.9
2017-Sep-16 07:30N 29°37' W 094°58'4 7.9
2017-Sep-16 07:00N 29°41' W 094°59'0 0.2
2017-Sep-16 06:30N 29°41' W 094°59'1 1.3
2017-Sep-16 05:59N 29°41' W 095°00'0 0.0
2017-Sep-16 05:24N 29°41' W 095°00'0 0.4
2017-Sep-16 04:44N 29°41' W 094°60'0 0.0
2017-Sep-16 04:26N 29°41' W 094°60'0 0.0
2017-Sep-16 03:50N 29°41' W 094°60'0 0.0
2017-Sep-16 03:29N 29°41' W 094°60'0 0.0
2017-Sep-16 01:53N 29°41' W 094°60'0 0.0
2017-Sep-16 01:17N 29°41' W 094°60'0 0.0
2017-Sep-16 00:35N 29°41' W 094°60'0 0.0
2017-Sep-16 00:17N 29°41' W 094°60'0 0.0
2017-Sep-15 23:29N 29°41' W 094°60'0 0.0
2017-Sep-15 23:00N 29°41' W 094°60'1 1.3
2017-Sep-15 22:30N 29°41' W 095°01'0 0.3
2017-Sep-15 22:01N 29°41' W 095°00'2 3.1
2017-Sep-15 21:30N 29°40' W 094°59'1 0.6
2017-Sep-15 20:12N 29°41' W 094°59'0 0.7
2017-Sep-15 19:37N 29°41' W 094°59'0 3.0
2017-Sep-15 19:30N 29°41' W 094°59'2 4.7
2017-Sep-15 19:00N 29°38' W 094°58'3 6.6
2017-Sep-15 18:30N 29°42' W 094°60'2 0.3
2017-Sep-15 13:18N 29°42' W 095°01'1 3.0
2017-Sep-15 12:54N 29°43' W 095°01'0 0.8
2017-Sep-15 12:29N 29°43' W 095°01'3 2.5
2017-Sep-15 11:25N 29°41' W 094°59'0 0.9
2017-Sep-15 10:59N 29°41' W 094°60'1 0.8
2017-Sep-15 10:15N 29°41' W 094°59'1 2.6
2017-Sep-15 10:00N 29°41' W 094°59'1 1.4
2017-Sep-15 09:30N 29°41' W 094°59'0 0.0
2017-Sep-15 08:48N 29°41' W 094°59'0 0.0
2017-Sep-15 08:30N 29°41' W 094°59'0 0.9
2017-Sep-15 08:00N 29°41' W 094°59'1 1.3
2017-Sep-15 07:31N 29°41' W 094°60'0 0.0
2017-Sep-15 07:01N 29°41' W 094°60'1 2.7
2017-Sep-15 06:31N 29°40' W 094°59'3 6.5
2017-Sep-15 06:00N 29°37' W 094°59'1 1.5
2017-Sep-15 05:31N 29°37' W 095°00'0 0.0
2017-Sep-15 05:00N 29°37' W 095°00'0 0.0
2017-Sep-15 04:30N 29°37' W 095°00'0 0.0
2017-Sep-15 04:00N 29°37' W 095°00'0 0.0
2017-Sep-15 03:30N 29°37' W 095°00'0 0.0
2017-Sep-15 03:01N 29°37' W 095°00'0 0.0
2017-Sep-15 02:30N 29°37' W 095°00'0 0.0
2017-Sep-15 02:00N 29°37' W 095°00'0 0.0
2017-Sep-15 01:30N 29°37' W 095°00'1 1.1
2017-Sep-15 00:51N 29°37' W 094°59'1 2.1
2017-Sep-15 00:30N 29°37' W 095°00'0 0.0
2017-Sep-15 00:00N 29°37' W 095°00'0 0.0
2017-Sep-14 23:30N 29°37' W 095°00'0 0.0
2017-Sep-14 23:00N 29°37' W 095°00'0 0.1
2017-Sep-14 22:30N 29°37' W 095°00'0 0.8
2017-Sep-14 22:00N 29°37' W 095°01'0 0.7
2017-Sep-14 21:30N 29°37' W 095°00'3 5.6
2017-Sep-14 21:01N 29°36' W 094°57'1 1.8
2017-Sep-14 20:30N 29°37' W 094°58'2 3.9
2017-Sep-14 20:00N 29°37' W 095°00'0 0.0
2017-Sep-14 19:27N 29°37' W 095°00'0 0.0
2017-Sep-14 18:54N 29°37' W 095°00'0 0.0
2017-Sep-14 18:18N 29°37' W 095°00'0 0.0
2017-Sep-14 18:00N 29°37' W 095°00'0 0.0
2017-Sep-14 17:09N 29°37' W 095°00'0 0.0
2017-Sep-14 16:57N 29°37' W 095°00'0 0.0
2017-Sep-14 16:21N 29°37' W 095°00'0 0.0
2017-Sep-14 16:00N 29°37' W 095°00'0 0.0
2017-Sep-14 15:18N 29°37' W 095°00'0 0.8
2017-Sep-14 15:00N 29°37' W 094°60'1 2.0
2017-Sep-14 14:29N 29°37' W 094°59'2 3.7
2017-Sep-14 14:00N 29°37' W 095°01'  
Track history (hours):
 
Tides and Currents Weather Stations Pressure Air Temp Water Temp Dewpoint Dewpoint Depression Visibility Wind Speed Wind Dir Waves Ship Positions

Lamar

Owner: G & H Towing Company, Galveston, TX. More information available from US FCC via Universal Licensing System and Coast Guard Vessel Documentation Center.

Last reported at 2017-Sep-24 13:59 UTC. Time now 2017-Sep-24 14:21 UTC.
Position N 29°42' W 095°01'.

Length 30 m; draft 6.5 m.

Type: Tug. MMSI: 367388340.

Date/timePositionNaut miles runAvg speedWind from/ knotsBaromVisibWave heightAir tempDewpointWater temp
2017-Sep-24 13:59N 29°42' W 095°01'0 0.0
2017-Sep-24 13:26N 29°42' W 095°01'0 0.0
2017-Sep-24 12:56N 29°42' W 095°01'0 0.0
2017-Sep-24 12:29N 29°42' W 095°01'0 0.0
2017-Sep-24 11:59N 29°42' W 095°01'0 0.0
2017-Sep-24 10:50N 29°42' W 095°01'0 0.0
2017-Sep-24 10:29N 29°42' W 095°01'0 0.0
2017-Sep-24 09:56N 29°42' W 095°01'0 0.0
2017-Sep-24 09:20N 29°42' W 095°01'0 0.0
2017-Sep-24 07:22N 29°42' W 095°01'2 5.1
2017-Sep-24 06:57N 29°44' W 095°03'4 5.9
2017-Sep-24 06:21N 29°44' W 095°07'0 0.2
2017-Sep-24 06:00N 29°44' W 095°07'0 0.0
2017-Sep-24 05:21N 29°44' W 095°07'2 6.7
2017-Sep-24 04:59N 29°45' W 095°04'3 5.5
2017-Sep-24 04:25N 29°44' W 095°01'0 0.0
2017-Sep-24 04:00N 29°44' W 095°01'0 0.0
2017-Sep-24 03:30N 29°44' W 095°01'1 2.4
2017-Sep-24 03:00N 29°42' W 095°01'0 0.4
2017-Sep-24 02:29N 29°42' W 095°01'0 0.0
2017-Sep-24 02:00N 29°42' W 095°01'0 0.6
2017-Sep-24 01:30N 29°42' W 095°01'1 1.1
2017-Sep-24 00:23N 29°44' W 095°01'1 3.1
2017-Sep-24 00:00N 29°43' W 095°01'2 4.5
2017-Sep-23 23:29N 29°41' W 094°59'0 0.4
2017-Sep-23 22:37N 29°41' W 094°60'0 0.0
2017-Sep-23 22:07N 29°41' W 094°60'0 0.0
2017-Sep-23 21:55N 29°41' W 094°60'0 0.0
2017-Sep-23 21:28N 29°41' W 094°60'0 0.0
2017-Sep-23 20:46N 29°41' W 094°60'0 0.0
2017-Sep-23 20:22N 29°41' W 094°60'2 5.2
2017-Sep-23 20:00N 29°42' W 095°01'2 0.0
2017-Sep-22 01:39N 29°41' W 094°60'0 0.0
2017-Sep-22 01:27N 29°41' W 094°60'0 0.0
2017-Sep-22 01:00N 29°41' W 094°60'4 8.1
2017-Sep-22 00:30N 29°37' W 094°57'5 9.8
2017-Sep-22 00:00N 29°33' W 094°55'0 0.1
2017-Sep-21 17:02N 29°33' W 094°54'1 6.2
2017-Sep-21 16:55N 29°33' W 094°55'1 3.6
2017-Sep-21 16:30N 29°35' W 094°56'1 1.0
2017-Sep-21 15:59N 29°35' W 094°56'612.7
2017-Sep-21 15:30N 29°41' W 094°59'0 0.4
2017-Sep-21 14:16N 29°41' W 094°59'1 2.2
2017-Sep-21 14:00N 29°41' W 094°60'0 0.1
2017-Sep-21 13:30N 29°41' W 094°60'4 8.5
2017-Sep-21 13:00N 29°37' W 094°57'2 4.0
2017-Sep-21 12:30N 29°37' W 094°60'1 1.4
2017-Sep-21 12:00N 29°37' W 095°01'0 0.1
2017-Sep-21 11:30N 29°37' W 095°01'0 0.0
2017-Sep-21 11:00N 29°37' W 095°01'0 0.6
2017-Sep-21 10:30N 29°37' W 095°00'1 1.5
2017-Sep-21 10:00N 29°37' W 095°01'1 2.7
2017-Sep-21 09:31N 29°37' W 094°60'1 2.8
2017-Sep-21 09:00N 29°37' W 095°01'0 0.0
2017-Sep-21 08:30N 29°37' W 095°01'0 0.1
2017-Sep-21 08:00N 29°37' W 095°01'1 1.6
2017-Sep-21 07:30N 29°37' W 095°00'0 0.0
2017-Sep-21 07:00N 29°37' W 095°00'0 0.0
2017-Sep-21 06:30N 29°37' W 095°00'0 0.0
2017-Sep-21 06:00N 29°37' W 095°00'0 0.0
2017-Sep-21 05:30N 29°37' W 095°00'0 0.0
2017-Sep-21 05:00N 29°37' W 095°00'0 0.0
2017-Sep-21 04:30N 29°37' W 095°00'1 2.0
2017-Sep-21 04:00N 29°37' W 095°01'1 2.9
2017-Sep-21 03:30N 29°37' W 094°60'2 3.9
2017-Sep-21 03:00N 29°37' W 094°58'4 2.6
2017-Sep-21 01:21N 29°41' W 094°59'1 1.8
2017-Sep-21 01:01N 29°41' W 094°60'0 0.1
2017-Sep-21 00:30N 29°41' W 094°60'3 5.3
2017-Sep-21 00:00N 29°43' W 095°01'6 5.9
2017-Sep-20 23:04N 29°44' W 095°08'0 0.1
2017-Sep-20 22:46N 29°44' W 095°08'0 0.1
2017-Sep-20 22:30N 29°44' W 095°08'1 2.5
2017-Sep-20 21:57N 29°45' W 095°06'2 4.1
2017-Sep-20 21:27N 29°45' W 095°04'3 5.9
2017-Sep-20 21:00N 29°44' W 095°01'3 5.6
2017-Sep-20 20:31N 29°42' W 094°59'1 0.2
2017-Sep-20 16:51N 29°41' W 094°59'0 0.2
2017-Sep-20 16:30N 29°41' W 094°59'1 1.9
2017-Sep-20 16:01N 29°42' W 094°60'1 2.4
2017-Sep-20 15:29N 29°42' W 095°01'0 0.0
2017-Sep-20 14:56N 29°42' W 095°01'0 0.0
2017-Sep-20 12:56N 29°42' W 095°01'0 0.0
2017-Sep-20 11:45N 29°42' W 095°01'2 7.1
2017-Sep-20 11:30N 29°42' W 094°59'0 0.6
2017-Sep-20 10:40N 29°41' W 094°59'0 1.4
2017-Sep-20 10:30N 29°41' W 094°59'1 0.9
2017-Sep-20 09:54N 29°41' W 094°60'0 0.0
2017-Sep-20 09:24N 29°41' W 094°60'0 0.0
2017-Sep-20 09:00N 29°41' W 094°60'0 0.0
2017-Sep-20 07:43N 29°41' W 094°60'1 3.6
2017-Sep-20 07:31N 29°41' W 094°59'1 1.3
2017-Sep-20 06:58N 29°41' W 094°59'0 0.1
2017-Sep-20 06:31N 29°41' W 094°59'0 0.0
2017-Sep-20 06:00N 29°41' W 094°59'3 5.1
2017-Sep-20 05:31N 29°43' W 095°01'2 3.8
2017-Sep-20 05:01N 29°44' W 095°03'0 0.0
2017-Sep-20 04:30N 29°44' W 095°03'0 0.3
2017-Sep-20 04:01N 29°44' W 095°03'2 3.4
2017-Sep-20 03:26N 29°43' W 095°01'0 0.8
2017-Sep-20 02:49N 29°42' W 095°01'0 0.0
2017-Sep-20 02:28N 29°42' W 095°01'0 0.0
2017-Sep-20 01:57N 29°42' W 095°01'3 1.6
2017-Sep-20 00:21N 29°44' W 095°03'2 6.1
2017-Sep-20 00:00N 29°43' W 095°01'2 4.3
2017-Sep-19 23:30N 29°41' W 094°60'0 0.0
2017-Sep-19 23:00N 29°41' W 094°60'1 1.1
2017-Sep-19 22:30N 29°41' W 094°59'3 6.3
2017-Sep-19 22:00N 29°38' W 094°58'2 4.9
2017-Sep-19 21:30N 29°37' W 095°00'0 0.0
2017-Sep-19 21:00N 29°37' W 095°00'0 0.0
2017-Sep-19 20:30N 29°37' W 095°00'0 0.0
2017-Sep-19 19:57N 29°37' W 095°00'0 0.0
2017-Sep-19 19:30N 29°37' W 095°00'0 0.0
2017-Sep-19 19:00N 29°37' W 095°00'0 0.0
2017-Sep-19 18:27N 29°37' W 095°00'0 0.0
2017-Sep-19 18:00N 29°37' W 095°00'0 0.0
2017-Sep-19 17:27N 29°37' W 095°00'0 0.0
2017-Sep-19 17:00N 29°37' W 095°00'0 0.0
2017-Sep-19 16:30N 29°37' W 095°00'0 0.0
2017-Sep-19 16:00N 29°37' W 095°00'0 0.0
2017-Sep-19 15:30N 29°37' W 095°00'0 0.0
2017-Sep-19 15:00N 29°37' W 095°00'0 0.0
2017-Sep-19 14:27N 29°37' W 095°00'0 0.0
2017-Sep-19 14:00N 29°37' W 095°00'0 0.0
2017-Sep-19 13:30N 29°37' W 095°00'0 0.0
2017-Sep-19 13:00N 29°37' W 095°00'0 0.0
2017-Sep-19 12:30N 29°37' W 095°00'0 0.0
2017-Sep-19 12:00N 29°37' W 095°00'0 0.0
2017-Sep-19 11:30N 29°37' W 095°00'0 0.0
2017-Sep-19 11:00N 29°37' W 095°00'0 0.0
2017-Sep-19 10:27N 29°37' W 095°00'0 0.0
2017-Sep-19 10:00N 29°37' W 095°00'0 0.0
2017-Sep-19 09:30N 29°37' W 095°00'0 0.0
2017-Sep-19 09:00N 29°37' W 095°00'0 0.0
2017-Sep-19 08:30N 29°37' W 095°00'0 0.0
2017-Sep-19 08:00N 29°37' W 095°00'0 0.0
2017-Sep-19 07:30N 29°37' W 095°00'0 0.0
2017-Sep-19 07:00N 29°37' W 095°00'0 0.0
2017-Sep-19 06:30N 29°37' W 095°00'0 0.0
2017-Sep-19 06:00N 29°37' W 095°00'1 2.3
2017-Sep-19 05:30N 29°37' W 095°01'0 0.0
2017-Sep-19 05:00N 29°37' W 095°01'1 2.5
2017-Sep-19 04:30N 29°37' W 094°60'0 0.3
2017-Sep-19 04:00N 29°37' W 095°00'0 0.0
2017-Sep-19 03:30N 29°37' W 095°00'0 0.0
2017-Sep-19 02:57N 29°37' W 095°00'1 2.6
2017-Sep-19 02:30N 29°37' W 095°01'0 0.0
2017-Sep-19 02:00N 29°37' W 095°01'0 0.4
2017-Sep-19 01:30N 29°37' W 095°02'1 1.7
2017-Sep-19 01:00N 29°37' W 095°01'1 0.8
2017-Sep-19 00:18N 29°37' W 095°00'0 0.0
2017-Sep-19 00:00N 29°37' W 095°00'2 4.4
2017-Sep-18 23:30N 29°38' W 094°58'5 9.2
2017-Sep-18 23:00N 29°42' W 094°60'4 3.2
2017-Sep-18 21:49N 29°44' W 095°03'1 3.2
2017-Sep-18 21:30N 29°44' W 095°02'1 2.8
2017-Sep-18 20:58N 29°43' W 095°01'3 7.3
2017-Sep-18 20:30N 29°40' W 094°59'4 6.6
2017-Sep-18 19:59N 29°37' W 094°60'1 2.9
2017-Sep-18 19:28N 29°37' W 095°02'0 0.8
2017-Sep-18 18:59N 29°37' W 095°01'0 0.0
2017-Sep-18 18:29N 29°37' W 095°01'0 0.0
2017-Sep-18 17:59N 29°37' W 095°01'0 0.0
2017-Sep-18 17:29N 29°37' W 095°01'1 1.7
2017-Sep-18 17:00N 29°37' W 095°00'0 0.0
2017-Sep-18 16:30N 29°37' W 095°00'0 0.0
2017-Sep-18 16:00N 29°37' W 095°00'0 0.7
2017-Sep-18 15:30N 29°37' W 095°01'0 0.9
2017-Sep-18 15:00N 29°37' W 095°01'1 2.5
2017-Sep-18 14:30N 29°37' W 094°60'0 0.3
2017-Sep-18 13:59N 29°37' W 094°60'1 1.1
2017-Sep-18 13:28N 29°37' W 095°00'0 0.0
2017-Sep-18 12:58N 29°37' W 095°00'0 0.0
2017-Sep-18 12:28N 29°37' W 095°00'0 0.2
2017-Sep-18 12:00N 29°37' W 095°00'0 0.8
2017-Sep-18 11:25N 29°37' W 095°01'0 0.7
2017-Sep-18 11:00N 29°37' W 095°01'2 4.4
2017-Sep-18 10:30N 29°37' W 094°59'3 6.3
2017-Sep-18 10:00N 29°35' W 094°56'4 8.4
2017-Sep-18 09:31N 29°37' W 095°00'1 2.4
2017-Sep-18 09:00N 29°37' W 095°02'0 0.0
2017-Sep-18 08:30N 29°37' W 095°02'0 0.0
2017-Sep-18 08:00N 29°37' W 095°02'0 0.0
2017-Sep-18 07:30N 29°37' W 095°02'0 0.0
2017-Sep-18 07:00N 29°37' W 095°02'0 0.0
2017-Sep-18 06:24N 29°37' W 095°02'0 0.0
2017-Sep-18 06:00N 29°37' W 095°02'0 0.0
2017-Sep-18 05:30N 29°37' W 095°02'0 0.0
2017-Sep-18 05:00N 29°37' W 095°02'0 0.0
2017-Sep-18 04:30N 29°37' W 095°02'0 0.0
2017-Sep-18 03:57N 29°37' W 095°02'0 0.0
2017-Sep-18 03:27N 29°37' W 095°02'0 0.0
2017-Sep-18 03:00N 29°37' W 095°02'0 0.0
2017-Sep-18 02:30N 29°37' W 095°02'0 0.0
2017-Sep-18 02:00N 29°37' W 095°02'0 0.0
2017-Sep-18 01:30N 29°37' W 095°02'0 0.0
2017-Sep-18 00:58N 29°37' W 095°02'0 0.0
2017-Sep-18 00:30N 29°37' W 095°02'0 0.0
2017-Sep-17 23:59N 29°37' W 095°02'0 0.0
2017-Sep-17 23:30N 29°37' W 095°02'1 2.6
2017-Sep-17 23:00N 29°37' W 095°00'1 2.1
2017-Sep-17 22:30N 29°37' W 095°01'2 3.0
2017-Sep-17 22:00N 29°37' W 094°60'0 0.1
2017-Sep-17 21:31N 29°37' W 094°59'3 6.7
2017-Sep-17 21:00N 29°40' W 094°59'3 6.4
2017-Sep-17 20:30N 29°42' W 095°01'0 0.0
2017-Sep-17 20:00N 29°42' W 095°01'0 0.0
2017-Sep-17 19:30N 29°42' W 095°01'0 0.0
2017-Sep-17 19:00N 29°42' W 095°01'0 0.0
2017-Sep-17 18:30N 29°42' W 095°01'0 0.0
2017-Sep-17 18:00N 29°42' W 095°01'2 4.3
2017-Sep-17 17:30N 29°41' W 094°59'4 7.9
2017-Sep-17 16:57N 29°37' W 094°59'3 5.7
2017-Sep-17 16:30N 29°37' W 095°01'0 0.4
2017-Sep-17 16:00N 29°37' W 095°01'1 2.1
2017-Sep-17 15:30N 29°37' W 095°00'2 4.4
2017-Sep-17 15:01N 29°37' W 094°58'5 9.4
2017-Sep-17 14:30N 29°41' W 094°59'2 3.3
2017-Sep-17 13:58N 29°42' W 095°01'0 0.0
2017-Sep-17 13:28N 29°42' W 095°01'0 0.0
2017-Sep-17 12:58N 29°42' W 095°01'0 0.0
2017-Sep-17 12:28N 29°42' W 095°01'0 0.0
2017-Sep-17 11:58N 29°42' W 095°01'0 0.0
2017-Sep-17 11:25N 29°42' W 095°01'0 0.0
2017-Sep-17 10:55N 29°42' W 095°01'0 0.0
2017-Sep-17 10:28N 29°42' W 095°01'0 0.0
2017-Sep-17 09:55N 29°42' W 095°01'0 0.0
2017-Sep-17 09:25N 29°42' W 095°01'0 0.0
2017-Sep-17 08:52N 29°42' W 095°01'0 0.0
2017-Sep-17 08:19N 29°42' W 095°01'0 0.0
2017-Sep-17 07:55N 29°42' W 095°01'0 0.0
2017-Sep-17 07:22N 29°42' W 095°01'0 0.0
2017-Sep-17 06:55N 29°42' W 095°01'0 0.0
2017-Sep-17 06:28N 29°42' W 095°01'0 0.0
2017-Sep-17 05:58N 29°42' W 095°01'0 0.0
2017-Sep-17 05:28N 29°42' W 095°01'0 0.0
2017-Sep-17 04:58N 29°42' W 095°01'0 0.0
2017-Sep-17 04:28N 29°42' W 095°01'0 0.0
2017-Sep-17 03:58N 29°42' W 095°01'0 0.0
2017-Sep-17 03:28N 29°42' W 095°01'0 0.0
2017-Sep-17 02:58N 29°42' W 095°01'0 0.0
2017-Sep-17 02:28N 29°42' W 095°01'0 0.0
2017-Sep-17 01:58N 29°42' W 095°01'0 0.0
2017-Sep-17 01:28N 29°42' W 095°01'0 0.0
2017-Sep-17 00:58N 29°42' W 095°01'0 0.0
2017-Sep-17 00:25N 29°42' W 095°01'0 0.0
2017-Sep-16 23:58N 29°42' W 095°01'0 1.0
2017-Sep-16 23:31N 29°43' W 095°01'2 0.9
2017-Sep-16 21:17N 29°44' W 095°03'2 4.6
2017-Sep-16 20:57N 29°44' W 095°01'2 3.5
2017-Sep-16 20:30N 29°42' W 095°01'2 2.0
2017-Sep-16 19:41N 29°41' W 094°59'0 1.2
2017-Sep-16 19:28N 29°41' W 094°60'0 0.0
2017-Sep-16 19:00N 29°41' W 094°60'3 4.8
2017-Sep-16 18:29N 29°43' W 095°01'3 5.5
2017-Sep-16 17:59N 29°45' W 095°04'2 1.2
2017-Sep-16 16:16N 29°45' W 095°06'1 0.4
2017-Sep-16 14:53N 29°44' W 095°07'0 0.7
2017-Sep-16 14:30N 29°45' W 095°06'2 3.9
2017-Sep-16 14:00N 29°46' W 095°04'4 7.6
2017-Sep-16 13:30N 29°43' W 095°01'1 1.3
2017-Sep-16 12:57N 29°42' W 095°01'0 0.0
2017-Sep-16 12:30N 29°42' W 095°01'0 0.0
2017-Sep-16 12:00N 29°42' W 095°01'1 1.3
2017-Sep-16 11:30N 29°42' W 095°00'5 9.6
2017-Sep-16 11:00N 29°38' W 094°58'3 5.0
2017-Sep-16 10:30N 29°37' W 095°00'0 0.0
2017-Sep-16 09:47N 29°37' W 095°00'0 0.8
2017-Sep-16 09:30N 29°37' W 095°01'0 0.2
2017-Sep-16 09:00N 29°37' W 095°01'0 0.1
2017-Sep-16 08:30N 29°37' W 095°01'3 6.6
2017-Sep-16 08:00N 29°36' W 094°57'1 2.9
2017-Sep-16 07:30N 29°37' W 094°58'4 7.9
2017-Sep-16 07:00N 29°41' W 094°59'0 0.2
2017-Sep-16 06:30N 29°41' W 094°59'1 1.3
2017-Sep-16 05:59N 29°41' W 095°00'0 0.0
2017-Sep-16 05:24N 29°41' W 095°00'0 0.4
2017-Sep-16 04:44N 29°41' W 094°60'0 0.0
2017-Sep-16 04:26N 29°41' W 094°60'0 0.0
2017-Sep-16 03:50N 29°41' W 094°60'0 0.0
2017-Sep-16 03:29N 29°41' W 094°60'0 0.0
2017-Sep-16 01:53N 29°41' W 094°60'0 0.0
2017-Sep-16 01:17N 29°41' W 094°60'0 0.0
2017-Sep-16 00:35N 29°41' W 094°60'0 0.0
2017-Sep-16 00:17N 29°41' W 094°60'0 0.0
2017-Sep-15 23:29N 29°41' W 094°60'0 0.0
2017-Sep-15 23:00N 29°41' W 094°60'1 1.3
2017-Sep-15 22:30N 29°41' W 095°01'0 0.3
2017-Sep-15 22:01N 29°41' W 095°00'2 3.1
2017-Sep-15 21:30N 29°40' W 094°59'1 0.6
2017-Sep-15 20:12N 29°41' W 094°59'0 0.7
2017-Sep-15 19:37N 29°41' W 094°59'0 3.0
2017-Sep-15 19:30N 29°41' W 094°59'2 4.7
2017-Sep-15 19:00N 29°38' W 094°58'3 6.6
2017-Sep-15 18:30N 29°42' W 094°60'2 0.3
2017-Sep-15 13:18N 29°42' W 095°01'1 3.0
2017-Sep-15 12:54N 29°43' W 095°01'0 0.8
2017-Sep-15 12:29N 29°43' W 095°01'3 2.5
2017-Sep-15 11:25N 29°41' W 094°59'0 0.9
2017-Sep-15 10:59N 29°41' W 094°60'1 0.8
2017-Sep-15 10:15N 29°41' W 094°59'1 2.6
2017-Sep-15 10:00N 29°41' W 094°59'1 1.4
2017-Sep-15 09:30N 29°41' W 094°59'0 0.0
2017-Sep-15 08:48N 29°41' W 094°59'0 0.0
2017-Sep-15 08:30N 29°41' W 094°59'0 0.9
2017-Sep-15 08:00N 29°41' W 094°59'1 1.3
2017-Sep-15 07:31N 29°41' W 094°60'0 0.0
2017-Sep-15 07:01N 29°41' W 094°60'1 2.7
2017-Sep-15 06:31N 29°40' W 094°59'3 6.5
2017-Sep-15 06:00N 29°37' W 094°59'1 1.5
2017-Sep-15 05:31N 29°37' W 095°00'0 0.0
2017-Sep-15 05:00N 29°37' W 095°00'0 0.0
2017-Sep-15 04:30N 29°37' W 095°00'0 0.0
2017-Sep-15 04:00N 29°37' W 095°00'0 0.0
2017-Sep-15 03:30N 29°37' W 095°00'0 0.0
2017-Sep-15 03:01N 29°37' W 095°00'0 0.0
2017-Sep-15 02:30N 29°37' W 095°00'0 0.0
2017-Sep-15 02:00N 29°37' W 095°00'0 0.0
2017-Sep-15 01:30N 29°37' W 095°00'1 1.1
2017-Sep-15 00:51N 29°37' W 094°59'1 2.1
2017-Sep-15 00:30N 29°37' W 095°00'0 0.0
2017-Sep-15 00:00N 29°37' W 095°00'0 0.0
2017-Sep-14 23:30N 29°37' W 095°00'0 0.0
2017-Sep-14 23:00N 29°37' W 095°00'0 0.1
2017-Sep-14 22:30N 29°37' W 095°00'0 0.8
2017-Sep-14 22:00N 29°37' W 095°01'0 0.7
2017-Sep-14 21:30N 29°37' W 095°00'3 5.6
2017-Sep-14 21:01N 29°36' W 094°57'1 1.8
2017-Sep-14 20:30N 29°37' W 094°58'2 3.9
2017-Sep-14 20:00N 29°37' W 095°00'0 0.0
2017-Sep-14 19:27N 29°37' W 095°00'0 0.0
2017-Sep-14 18:54N 29°37' W 095°00'0 0.0
2017-Sep-14 18:18N 29°37' W 095°00'0 0.0
2017-Sep-14 18:00N 29°37' W 095°00'0 0.0
2017-Sep-14 17:09N 29°37' W 095°00'0 0.0
2017-Sep-14 16:57N 29°37' W 095°00'0 0.0
2017-Sep-14 16:21N 29°37' W 095°00'0 0.0
2017-Sep-14 16:00N 29°37' W 095°00'0 0.0
2017-Sep-14 15:18N 29°37' W 095°00'0 0.8
2017-Sep-14 15:00N 29°37' W 094°60'1 2.0
2017-Sep-14 14:29N 29°37' W 094°59'2 3.7
2017-Sep-14 14:00N 29°37' W 095°01'  

Dump ship's entire track history